Sainte-Cecile-De-Masham, Canada
Current Conditions -  °F | °C
As of 4:00 PM on Sunday 23 Nov 2014 (Local Time) from CYND Reporting Station
Moderate Fog Moderate Fog  
Wind Chill: 33°   Ceiling: 600
Heat Index: 39°   Visibility: 0.25mi
Dew Point: 39°   Wind: 9mph
Humidity: 100%   Direction: 60°ENE
Pressure: 29.97"   Gusts: NA
Location:  45.65°N, 76.03°W
Report Text: CYND 232100Z 06008KT 1/4SM FG VV006 04/04 A2997 RMK FG8 SLP152
Loading
Personal Weather Stations






























Interactive Weather Map New forecast layout! Learn more

10-Day Weather Forecast

Advertisements
Track Severe Weather on mobile